sensor_id;sensor_type;location;lat;lon;timestamp;noise_LAeq;noise_LA_min;noise_LA_max;noise_LA01;noise_LA95
74234;Laerm;62591;55.764;37.718;2023-02-21T00:00:15;40.27;36.86;45.95;;
74234;Laerm;62591;55.764;37.718;2023-02-21T00:03:01;40.43;36.19;49.38;;
74234;Laerm;62591;55.764;37.718;2023-02-21T00:05:48;40.23;35.97;44.89;;
74234;Laerm;62591;55.764;37.718;2023-02-21T00:08:34;40.07;36.00;47.80;;
74234;Laerm;62591;55.764;37.718;2023-02-21T00:11:22;40.85;35.90;50.93;;
74234;Laerm;62591;55.764;37.718;2023-02-21T00:14:08;40.00;36.34;46.07;;
74234;Laerm;62591;55.764;37.718;2023-02-21T00:16:54;39.91;36.03;43.64;;
74234;Laerm;62591;55.764;37.718;2023-02-21T00:19:40;40.02;36.31;47.51;;
74234;Laerm;62591;55.764;37.718;2023-02-21T00:22:26;41.15;36.43;47.31;;
74234;Laerm;62591;55.764;37.718;2023-02-21T00:25:13;40.12;36.60;47.64;;
74234;Laerm;62591;55.764;37.718;2023-02-21T00:28:01;40.32;36.37;45.74;;
74234;Laerm;62591;55.764;37.718;2023-02-21T00:30:46;40.32;36.01;47.46;;
74234;Laerm;62591;55.764;37.718;2023-02-21T00:33:34;40.57;36.63;46.21;;
74234;Laerm;62591;55.764;37.718;2023-02-21T00:36:20;40.07;36.56;43.31;;
74234;Laerm;62591;55.764;37.718;2023-02-21T00:39:06;40.54;36.53;50.25;;
74234;Laerm;62591;55.764;37.718;2023-02-21T00:41:54;40.14;36.21;43.75;;
74234;Laerm;62591;55.764;37.718;2023-02-21T00:44:41;41.02;36.80;49.83;;
74234;Laerm;62591;55.764;37.718;2023-02-21T00:47:29;40.16;36.52;43.31;;
74234;Laerm;62591;55.764;37.718;2023-02-21T00:50:15;41.79;36.77;53.85;;
74234;Laerm;62591;55.764;37.718;2023-02-21T00:53:01;45.51;37.39;60.57;;
74234;Laerm;62591;55.764;37.718;2023-02-21T00:55:47;41.72;37.69;45.13;;
74234;Laerm;62591;55.764;37.718;2023-02-21T00:58:33;41.47;36.86;46.14;;
74234;Laerm;62591;55.764;37.718;2023-02-21T01:01:20;40.84;36.35;49.92;;
74234;Laerm;62591;55.764;37.718;2023-02-21T01:04:08;40.42;36.51;43.68;;
74234;Laerm;62591;55.764;37.718;2023-02-21T01:06:54;40.86;36.57;53.58;;
74234;Laerm;62591;55.764;37.718;2023-02-21T01:09:41;41.75;37.14;47.53;;
74234;Laerm;62591;55.764;37.718;2023-02-21T01:12:29;42.58;38.14;50.11;;
74234;Laerm;62591;55.764;37.718;2023-02-21T01:15:16;41.50;37.80;45.14;;
74234;Laerm;62591;55.764;37.718;2023-02-21T01:18:04;42.03;38.02;45.70;;
74234;Laerm;62591;55.764;37.718;2023-02-21T01:20:51;43.13;37.71;56.09;;
74234;Laerm;62591;55.764;37.718;2023-02-21T01:23:37;42.12;37.59;46.36;;
74234;Laerm;62591;55.764;37.718;2023-02-21T01:26:23;44.22;39.24;59.50;;
74234;Laerm;62591;55.764;37.718;2023-02-21T01:29:09;43.43;38.53;50.48;;
74234;Laerm;62591;55.764;37.718;2023-02-21T01:31:55;41.71;37.75;45.83;;
74234;Laerm;62591;55.764;37.718;2023-02-21T01:34:42;42.02;37.76;47.58;;
74234;Laerm;62591;55.764;37.718;2023-02-21T01:37:29;41.99;37.41;47.00;;
74234;Laerm;62591;55.764;37.718;2023-02-21T01:40:16;42.34;38.08;55.84;;
74234;Laerm;62591;55.764;37.718;2023-02-21T01:43:01;42.97;39.11;65.97;;
74234;Laerm;62591;55.764;37.718;2023-02-21T01:45:49;42.30;37.62;56.58;;
74234;Laerm;62591;55.764;37.718;2023-02-21T01:48:35;43.69;37.89;51.79;;
74234;Laerm;62591;55.764;37.718;2023-02-21T01:51:26;42.00;38.25;45.86;;
74234;Laerm;62591;55.764;37.718;2023-02-21T01:54:13;43.24;37.45;51.83;;
74234;Laerm;62591;55.764;37.718;2023-02-21T01:57:01;42.85;38.65;49.30;;
74234;Laerm;62591;55.764;37.718;2023-02-21T01:59:49;44.50;37.75;52.95;;
74234;Laerm;62591;55.764;37.718;2023-02-21T02:02:45;42.13;37.80;48.96;;
74234;Laerm;62591;55.764;37.718;2023-02-21T02:05:32;43.26;38.22;48.55;;
74234;Laerm;62591;55.764;37.718;2023-02-21T02:08:23;43.37;38.99;48.67;;
74234;Laerm;62591;55.764;37.718;2023-02-21T02:11:19;42.78;38.38;53.48;;
74234;Laerm;62591;55.764;37.718;2023-02-21T02:14:18;42.83;37.60;49.67;;
74234;Laerm;62591;55.764;37.718;2023-02-21T02:16:58;42.30;38.26;49.01;;
74234;Laerm;62591;55.764;37.718;2023-02-21T02:22:56;41.67;38.12;45.36;;
74234;Laerm;62591;55.764;37.718;2023-02-21T02:25:59;42.18;38.08;48.74;;
74234;Laerm;62591;55.764;37.718;2023-02-21T02:28:53;42.16;36.82;50.66;;
74234;Laerm;62591;55.764;37.718;2023-02-21T02:31:50;41.78;37.11;51.13;;
74234;Laerm;62591;55.764;37.718;2023-02-21T02:34:36;45.10;38.64;53.48;;
74234;Laerm;62591;55.764;37.718;2023-02-21T02:37:15;46.24;37.72;62.13;;
74234;Laerm;62591;55.764;37.718;2023-02-21T02:39:50;42.99;38.64;50.55;;
74234;Laerm;62591;55.764;37.718;2023-02-21T02:42:30;43.78;38.65;51.02;;
74234;Laerm;62591;55.764;37.718;2023-02-21T02:45:05;42.82;37.56;53.78;;
74234;Laerm;62591;55.764;37.718;2023-02-21T02:47:38;42.43;38.21;47.41;;
74234;Laerm;62591;55.764;37.718;2023-02-21T02:50:11;43.76;38.29;53.43;;
74234;Laerm;62591;55.764;37.718;2023-02-21T02:52:49;43.02;38.89;56.24;;
74234;Laerm;62591;55.764;37.718;2023-02-21T02:55:27;42.31;38.29;51.49;;
74234;Laerm;62591;55.764;37.718;2023-02-21T02:57:58;44.05;38.82;50.86;;
74234;Laerm;62591;55.764;37.718;2023-02-21T03:00:28;42.70;38.71;48.84;;
74234;Laerm;62591;55.764;37.718;2023-02-21T03:03:27;44.13;39.35;51.32;;
74234;Laerm;62591;55.764;37.718;2023-02-21T03:06:15;47.91;39.30;59.41;;
74234;Laerm;62591;55.764;37.718;2023-02-21T03:08:52;45.16;40.10;52.12;;
74234;Laerm;62591;55.764;37.718;2023-02-21T03:11:25;44.22;39.24;50.49;;
74234;Laerm;62591;55.764;37.718;2023-02-21T03:14:00;50.94;39.70;60.51;;
74234;Laerm;62591;55.764;37.718;2023-02-21T03:16:35;46.11;38.89;55.78;;
74234;Laerm;62591;55.764;37.718;2023-02-21T03:19:09;48.00;38.92;58.99;;
74234;Laerm;62591;55.764;37.718;2023-02-21T03:21:44;50.40;39.97;69.56;;
74234;Laerm;62591;55.764;37.718;2023-02-21T03:24:15;43.65;39.69;52.70;;
74234;Laerm;62591;55.764;37.718;2023-02-21T03:26:49;44.38;39.98;51.89;;
74234;Laerm;62591;55.764;37.718;2023-02-21T03:29:59;44.63;39.29;54.22;;
74234;Laerm;62591;55.764;37.718;2023-02-21T03:32:35;44.94;39.97;51.82;;
74234;Laerm;62591;55.764;37.718;2023-02-21T03:35:05;45.50;39.89;52.51;;
74234;Laerm;62591;55.764;37.718;2023-02-21T03:37:39;43.86;38.85;48.05;;
74234;Laerm;62591;55.764;37.718;2023-02-21T03:40:11;44.12;39.02;52.05;;
74234;Laerm;62591;55.764;37.718;2023-02-21T03:42:45;45.29;40.56;53.65;;
74234;Laerm;62591;55.764;37.718;2023-02-21T03:45:16;45.17;40.80;51.21;;
74234;Laerm;62591;55.764;37.718;2023-02-21T03:47:57;45.38;40.33;52.13;;
74234;Laerm;62591;55.764;37.718;2023-02-21T03:50:26;44.51;40.20;51.60;;
74234;Laerm;62591;55.764;37.718;2023-02-21T03:52:56;46.43;40.79;54.63;;
74234;Laerm;62591;55.764;37.718;2023-02-21T03:55:25;44.01;39.87;55.01;;
74234;Laerm;62591;55.764;37.718;2023-02-21T03:57:54;45.77;40.18;57.08;;
74234;Laerm;62591;55.764;37.718;2023-02-21T04:00:23;44.95;40.25;51.17;;
74234;Laerm;62591;55.764;37.718;2023-02-21T04:02:54;45.26;39.50;54.26;;
74234;Laerm;62591;55.764;37.718;2023-02-21T04:05:45;46.67;38.81;64.23;;
74234;Laerm;62591;55.764;37.718;2023-02-21T04:08:15;50.69;40.61;66.95;;
74234;Laerm;62591;55.764;37.718;2023-02-21T04:10:44;53.21;39.59;70.23;;
74234;Laerm;62591;55.764;37.718;2023-02-21T04:13:21;45.57;39.47;63.65;;
74234;Laerm;62591;55.764;37.718;2023-02-21T04:15:51;49.62;40.66;62.91;;
74234;Laerm;62591;55.764;37.718;2023-02-21T04:18:20;49.41;42.44;59.76;;
74234;Laerm;62591;55.764;37.718;2023-02-21T04:20:51;50.34;43.81;63.96;;
74234;Laerm;62591;55.764;37.718;2023-02-21T04:23:22;49.90;44.12;62.56;;
74234;Laerm;62591;55.764;37.718;2023-02-21T04:25:52;46.77;41.50;65.07;;
74234;Laerm;62591;55.764;37.718;2023-02-21T04:28:31;46.34;41.31;57.95;;
74234;Laerm;62591;55.764;37.718;2023-02-21T04:30:59;49.58;41.87;65.79;;
74234;Laerm;62591;55.764;37.718;2023-02-21T04:33:31;48.77;41.57;63.01;;
74234;Laerm;62591;55.764;37.718;2023-02-21T04:36:00;48.94;41.46;66.60;;
74234;Laerm;62591;55.764;37.718;2023-02-21T04:38:41;50.18;42.29;63.10;;
74234;Laerm;62591;55.764;37.718;2023-02-21T04:41:10;48.52;42.94;64.68;;
74234;Laerm;62591;55.764;37.718;2023-02-21T04:43:40;48.07;42.20;62.36;;
74234;Laerm;62591;55.764;37.718;2023-02-21T04:46:09;50.07;42.10;66.05;;
74234;Laerm;62591;55.764;37.718;2023-02-21T04:48:42;64.25;44.61;75.47;;
74234;Laerm;62591;55.764;37.718;2023-02-21T04:51:11;64.74;42.70;77.16;;
74234;Laerm;62591;55.764;37.718;2023-02-21T04:53:43;51.15;42.36;76.15;;
74234;Laerm;62591;55.764;37.718;2023-02-21T04:56:11;53.29;40.71;68.60;;
74234;Laerm;62591;55.764;37.718;2023-02-21T04:58:41;54.41;41.14;72.26;;
74234;Laerm;62591;55.764;37.718;2023-02-21T05:01:12;50.32;42.19;67.36;;
74234;Laerm;62591;55.764;37.718;2023-02-21T05:03:41;47.74;42.54;63.41;;
74234;Laerm;62591;55.764;37.718;2023-02-21T05:06:16;51.66;43.23;63.87;;
74234;Laerm;62591;55.764;37.718;2023-02-21T05:08:47;50.53;43.63;71.84;;
74234;Laerm;62591;55.764;37.718;2023-02-21T05:11:17;50.70;42.85;64.47;;
74234;Laerm;62591;55.764;37.718;2023-02-21T05:13:46;51.57;42.03;69.70;;
74234;Laerm;62591;55.764;37.718;2023-02-21T05:16:15;50.53;41.58;66.44;;
74234;Laerm;62591;55.764;37.718;2023-02-21T05:18:45;50.51;41.40;68.24;;
74234;Laerm;62591;55.764;37.718;2023-02-21T05:21:17;52.68;42.00;68.32;;
74234;Laerm;62591;55.764;37.718;2023-02-21T05:23:47;53.58;42.06;70.77;;
74234;Laerm;62591;55.764;37.718;2023-02-21T05:26:25;51.17;43.43;67.84;;
74234;Laerm;62591;55.764;37.718;2023-02-21T05:28:53;49.26;40.87;75.36;;
74234;Laerm;62591;55.764;37.718;2023-02-21T05:31:22;49.55;41.22;71.50;;
74234;Laerm;62591;55.764;37.718;2023-02-21T05:33:51;48.52;41.61;63.55;;
74234;Laerm;62591;55.764;37.718;2023-02-21T05:36:19;48.74;42.17;64.43;;
74234;Laerm;62591;55.764;37.718;2023-02-21T05:38:53;48.20;41.49;63.32;;
74234;Laerm;62591;55.764;37.718;2023-02-21T05:41:23;49.10;41.73;67.47;;
74234;Laerm;62591;55.764;37.718;2023-02-21T05:43:52;50.63;40.82;69.22;;
74234;Laerm;62591;55.764;37.718;2023-02-21T05:46:23;50.52;40.51;68.85;;
74234;Laerm;62591;55.764;37.718;2023-02-21T05:48:52;51.32;44.10;67.76;;
74234;Laerm;62591;55.764;37.718;2023-02-21T05:51:21;51.28;42.07;66.20;;
74234;Laerm;62591;55.764;37.718;2023-02-21T05:53:51;48.71;41.10;62.38;;
74234;Laerm;62591;55.764;37.718;2023-02-21T05:56:21;49.49;40.97;69.83;;
74234;Laerm;62591;55.764;37.718;2023-02-21T05:58:50;49.02;40.56;66.14;;
74234;Laerm;62591;55.764;37.718;2023-02-21T06:01:18;47.74;41.37;61.38;;
74234;Laerm;62591;55.764;37.718;2023-02-21T06:03:47;48.94;40.77;66.32;;
74234;Laerm;62591;55.764;37.718;2023-02-21T06:06:15;48.32;41.49;65.27;;
74234;Laerm;62591;55.764;37.718;2023-02-21T06:08:45;49.47;42.23;67.11;;
74234;Laerm;62591;55.764;37.718;2023-02-21T06:11:22;49.63;41.42;66.57;;
74234;Laerm;62591;55.764;37.718;2023-02-21T06:13:52;49.31;42.29;62.89;;
74234;Laerm;62591;55.764;37.718;2023-02-21T06:16:21;48.51;42.40;63.67;;
74234;Laerm;62591;55.764;37.718;2023-02-21T06:18:50;47.96;41.61;61.14;;
74234;Laerm;62591;55.764;37.718;2023-02-21T06:21:19;48.69;42.02;64.36;;
74234;Laerm;62591;55.764;37.718;2023-02-21T06:23:48;49.28;42.60;65.53;;
74234;Laerm;62591;55.764;37.718;2023-02-21T06:26:19;50.21;41.53;73.97;;
74234;Laerm;62591;55.764;37.718;2023-02-21T06:28:48;48.05;40.88;65.54;;
74234;Laerm;62591;55.764;37.718;2023-02-21T06:31:17;47.94;39.96;66.02;;
74234;Laerm;62591;55.764;37.718;2023-02-21T06:33:47;50.76;42.65;67.70;;
74234;Laerm;62591;55.764;37.718;2023-02-21T06:36:18;50.49;43.17;68.50;;
74234;Laerm;62591;55.764;37.718;2023-02-21T06:38:51;48.30;42.69;64.84;;
74234;Laerm;62591;55.764;37.718;2023-02-21T06:41:23;52.39;42.14;70.88;;
74234;Laerm;62591;55.764;37.718;2023-02-21T06:43:53;52.37;41.53;73.99;;
74234;Laerm;62591;55.764;37.718;2023-02-21T06:46:23;51.15;42.06;65.65;;
74234;Laerm;62591;55.764;37.718;2023-02-21T06:48:52;46.35;40.19;62.77;;
74234;Laerm;62591;55.764;37.718;2023-02-21T06:51:20;47.63;40.76;65.41;;
74234;Laerm;62591;55.764;37.718;2023-02-21T06:53:56;46.44;40.07;61.75;;
74234;Laerm;62591;55.764;37.718;2023-02-21T06:56:26;48.13;42.28;57.33;;
74234;Laerm;62591;55.764;37.718;2023-02-21T06:58:55;45.81;40.04;57.67;;
74234;Laerm;62591;55.764;37.718;2023-02-21T07:01:24;46.63;40.91;58.67;;
74234;Laerm;62591;55.764;37.718;2023-02-21T07:03:54;50.92;40.03;71.82;;
74234;Laerm;62591;55.764;37.718;2023-02-21T07:06:23;48.45;40.11;63.16;;
74234;Laerm;62591;55.764;37.718;2023-02-21T07:08:55;49.13;40.71;63.81;;
74234;Laerm;62591;55.764;37.718;2023-02-21T07:11:25;46.17;41.51;53.99;;
74234;Laerm;62591;55.764;37.718;2023-02-21T07:13:55;46.61;41.41;59.44;;
74234;Laerm;62591;55.764;37.718;2023-02-21T07:16:25;46.34;41.32;60.63;;
74234;Laerm;62591;55.764;37.718;2023-02-21T07:18:54;49.18;41.83;65.14;;
74234;Laerm;62591;55.764;37.718;2023-02-21T07:21:25;48.65;40.88;67.67;;
74234;Laerm;62591;55.764;37.718;2023-02-21T07:23:54;45.71;39.98;62.62;;
74234;Laerm;62591;55.764;37.718;2023-02-21T07:26:22;47.06;40.37;68.59;;
74234;Laerm;62591;55.764;37.718;2023-02-21T07:28:52;46.50;40.35;53.50;;
74234;Laerm;62591;55.764;37.718;2023-02-21T07:31:21;46.17;41.47;69.37;;
74234;Laerm;62591;55.764;37.718;2023-02-21T07:33:50;50.51;41.60;62.74;;
74234;Laerm;62591;55.764;37.718;2023-02-21T07:36:18;56.79;42.38;74.73;;
74234;Laerm;62591;55.764;37.718;2023-02-21T07:38:47;48.89;42.38;64.83;;
74234;Laerm;62591;55.764;37.718;2023-02-21T07:41:16;50.14;43.36;63.11;;
74234;Laerm;62591;55.764;37.718;2023-02-21T07:43:44;51.66;42.54;65.66;;
74234;Laerm;62591;55.764;37.718;2023-02-21T07:46:15;53.70;42.74;67.13;;
74234;Laerm;62591;55.764;37.718;2023-02-21T07:48:44;52.60;42.94;73.10;;
74234;Laerm;62591;55.764;37.718;2023-02-21T07:51:13;47.37;40.83;64.67;;
74234;Laerm;62591;55.764;37.718;2023-02-21T07:53:41;47.55;39.91;60.97;;
74234;Laerm;62591;55.764;37.718;2023-02-21T07:56:10;49.29;41.16;71.43;;
74234;Laerm;62591;55.764;37.718;2023-02-21T07:58:39;50.46;41.61;64.67;;
74234;Laerm;62591;55.764;37.718;2023-02-21T08:01:08;52.87;43.44;69.76;;
74234;Laerm;62591;55.764;37.718;2023-02-21T08:03:38;53.99;42.00;72.23;;
74234;Laerm;62591;55.764;37.718;2023-02-21T08:06:07;48.90;41.74;60.99;;
74234;Laerm;62591;55.764;37.718;2023-02-21T08:08:36;47.20;40.63;56.96;;
74234;Laerm;62591;55.764;37.718;2023-02-21T08:11:05;48.86;42.21;63.83;;
74234;Laerm;62591;55.764;37.718;2023-02-21T08:13:33;47.23;40.24;66.17;;
74234;Laerm;62591;55.764;37.718;2023-02-21T08:16:02;47.48;40.95;61.41;;
74234;Laerm;62591;55.764;37.718;2023-02-21T08:18:31;48.56;41.26;60.25;;
74234;Laerm;62591;55.764;37.718;2023-02-21T08:21:01;49.03;40.52;66.52;;
74234;Laerm;62591;55.764;37.718;2023-02-21T08:23:30;45.42;40.15;57.35;;
74234;Laerm;62591;55.764;37.718;2023-02-21T08:25:59;50.12;40.94;61.82;;
74234;Laerm;62591;55.764;37.718;2023-02-21T08:28:28;46.46;39.19;59.83;;
74234;Laerm;62591;55.764;37.718;2023-02-21T08:30:57;45.79;38.96;61.27;;
74234;Laerm;62591;55.764;37.718;2023-02-21T08:33:25;54.10;40.96;72.92;;
74234;Laerm;62591;55.764;37.718;2023-02-21T08:35:57;46.34;39.93;63.07;;
74234;Laerm;62591;55.764;37.718;2023-02-21T08:38:27;48.18;40.64;65.75;;
74234;Laerm;62591;55.764;37.718;2023-02-21T08:40:55;48.98;40.37;63.32;;
74234;Laerm;62591;55.764;37.718;2023-02-21T08:43:24;47.48;39.18;68.83;;
74234;Laerm;62591;55.764;37.718;2023-02-21T08:45:53;50.21;39.79;67.12;;
74234;Laerm;62591;55.764;37.718;2023-02-21T08:48:22;45.39;39.51;61.73;;
74234;Laerm;62591;55.764;37.718;2023-02-21T08:50:51;46.52;41.12;60.19;;
74234;Laerm;62591;55.764;37.718;2023-02-21T08:53:19;47.96;40.15;63.68;;
74234;Laerm;62591;55.764;37.718;2023-02-21T08:55:49;49.15;37.83;68.59;;
74234;Laerm;62591;55.764;37.718;2023-02-21T08:58:18;47.41;38.37;66.61;;
74234;Laerm;62591;55.764;37.718;2023-02-21T09:00:46;46.87;38.25;66.98;;
74234;Laerm;62591;55.764;37.718;2023-02-21T09:03:15;47.57;39.66;63.39;;
74234;Laerm;62591;55.764;37.718;2023-02-21T09:05:43;46.59;39.72;62.38;;
74234;Laerm;62591;55.764;37.718;2023-02-21T09:08:12;47.59;41.30;64.39;;
74234;Laerm;62591;55.764;37.718;2023-02-21T09:10:41;45.38;40.09;61.56;;
74234;Laerm;62591;55.764;37.718;2023-02-21T09:13:15;46.64;38.49;58.55;;
74234;Laerm;62591;55.764;37.718;2023-02-21T09:15:43;48.84;39.86;73.41;;
74234;Laerm;62591;55.764;37.718;2023-02-21T09:18:12;47.23;39.67;72.25;;
74234;Laerm;62591;55.764;37.718;2023-02-21T09:20:40;45.89;38.80;64.09;;
74234;Laerm;62591;55.764;37.718;2023-02-21T09:23:09;46.81;39.46;61.00;;
74234;Laerm;62591;55.764;37.718;2023-02-21T09:25:37;46.17;40.74;58.83;;
74234;Laerm;62591;55.764;37.718;2023-02-21T09:28:06;47.42;39.56;63.93;;
74234;Laerm;62591;55.764;37.718;2023-02-21T09:30:36;47.58;39.04;66.84;;
74234;Laerm;62591;55.764;37.718;2023-02-21T09:33:04;47.05;39.70;65.50;;
74234;Laerm;62591;55.764;37.718;2023-02-21T09:35:33;44.95;37.13;59.20;;
74234;Laerm;62591;55.764;37.718;2023-02-21T09:38:06;47.82;38.15;61.04;;
74234;Laerm;62591;55.764;37.718;2023-02-21T09:40:40;47.58;37.03;67.07;;
74234;Laerm;62591;55.764;37.718;2023-02-21T09:43:12;48.64;41.50;69.98;;
74234;Laerm;62591;55.764;37.718;2023-02-21T09:45:44;48.72;37.17;71.86;;
74234;Laerm;62591;55.764;37.718;2023-02-21T09:48:16;49.13;38.53;65.11;;
74234;Laerm;62591;55.764;37.718;2023-02-21T09:50:48;48.12;39.68;63.45;;
74234;Laerm;62591;55.764;37.718;2023-02-21T09:53:21;48.12;39.27;64.86;;
74234;Laerm;62591;55.764;37.718;2023-02-21T09:55:54;48.67;37.84;63.93;;
74234;Laerm;62591;55.764;37.718;2023-02-21T09:58:24;47.09;37.10;68.01;;
74234;Laerm;62591;55.764;37.718;2023-02-21T10:00:57;45.95;37.11;63.39;;
74234;Laerm;62591;55.764;37.718;2023-02-21T10:03:40;46.58;38.35;60.33;;
74234;Laerm;62591;55.764;37.718;2023-02-21T10:06:18;45.28;37.34;61.18;;
74234;Laerm;62591;55.764;37.718;2023-02-21T10:08:56;46.25;39.50;64.99;;
74234;Laerm;62591;55.764;37.718;2023-02-21T10:11:37;45.29;38.53;57.02;;
74234;Laerm;62591;55.764;37.718;2023-02-21T10:14:24;45.27;38.76;58.89;;
74234;Laerm;62591;55.764;37.718;2023-02-21T10:17:01;46.62;37.93;60.91;;
74234;Laerm;62591;55.764;37.718;2023-02-21T10:19:35;46.80;38.90;65.43;;
74234;Laerm;62591;55.764;37.718;2023-02-21T10:22:12;46.97;38.83;55.96;;
74234;Laerm;62591;55.764;37.718;2023-02-21T10:24:42;45.68;38.69;61.17;;
74234;Laerm;62591;55.764;37.718;2023-02-21T10:27:15;46.29;38.98;67.37;;
74234;Laerm;62591;55.764;37.718;2023-02-21T10:29:49;49.94;39.57;67.52;;
74234;Laerm;62591;55.764;37.718;2023-02-21T10:32:23;50.06;40.57;74.78;;
74234;Laerm;62591;55.764;37.718;2023-02-21T10:34:52;51.23;38.81;70.82;;
74234;Laerm;62591;55.764;37.718;2023-02-21T10:37:37;51.19;39.72;74.76;;
74234;Laerm;62591;55.764;37.718;2023-02-21T10:40:31;51.16;39.12;72.04;;
74234;Laerm;62591;55.764;37.718;2023-02-21T10:43:08;51.49;40.11;69.51;;
74234;Laerm;62591;55.764;37.718;2023-02-21T10:45:40;52.19;39.61;71.50;;
74234;Laerm;62591;55.764;37.718;2023-02-21T10:48:15;49.98;40.02;69.16;;
74234;Laerm;62591;55.764;37.718;2023-02-21T10:50:50;46.98;38.66;62.58;;
74234;Laerm;62591;55.764;37.718;2023-02-21T10:53:26;50.20;38.53;74.63;;
74234;Laerm;62591;55.764;37.718;2023-02-21T10:56:07;47.76;38.88;65.20;;
74234;Laerm;62591;55.764;37.718;2023-02-21T10:58:36;49.47;41.03;62.63;;
74234;Laerm;62591;55.764;37.718;2023-02-21T11:01:11;48.96;39.81;67.24;;
74234;Laerm;62591;55.764;37.718;2023-02-21T11:03:48;48.87;39.29;62.67;;
74234;Laerm;62591;55.764;37.718;2023-02-21T11:06:23;49.19;40.35;61.29;;
74234;Laerm;62591;55.764;37.718;2023-02-21T11:08:54;48.98;44.04;67.37;;
74234;Laerm;62591;55.764;37.718;2023-02-21T11:11:34;49.66;43.38;59.48;;
74234;Laerm;62591;55.764;37.718;2023-02-21T11:14:22;47.10;40.28;60.62;;
74234;Laerm;62591;55.764;37.718;2023-02-21T11:17:04;48.44;39.71;62.59;;
74234;Laerm;62591;55.764;37.718;2023-02-21T11:19:46;46.00;37.80;63.04;;
74234;Laerm;62591;55.764;37.718;2023-02-21T11:22:17;45.95;38.72;60.10;;
74234;Laerm;62591;55.764;37.718;2023-02-21T11:24:51;47.04;38.53;64.89;;
74234;Laerm;62591;55.764;37.718;2023-02-21T11:27:21;49.14;40.34;61.60;;
74234;Laerm;62591;55.764;37.718;2023-02-21T11:29:52;46.05;39.70;60.64;;
74234;Laerm;62591;55.764;37.718;2023-02-21T11:32:28;47.43;39.84;66.76;;
74234;Laerm;62591;55.764;37.718;2023-02-21T11:35:06;50.69;39.85;70.19;;
74234;Laerm;62591;55.764;37.718;2023-02-21T11:37:48;48.13;41.25;62.32;;
74234;Laerm;62591;55.764;37.718;2023-02-21T11:40:30;48.57;40.39;67.66;;
74234;Laerm;62591;55.764;37.718;2023-02-21T11:43:26;46.76;39.55;67.80;;
74234;Laerm;62591;55.764;37.718;2023-02-21T11:46:12;46.89;40.85;58.11;;
74234;Laerm;62591;55.764;37.718;2023-02-21T11:48:50;46.79;40.31;57.37;;
74234;Laerm;62591;55.764;37.718;2023-02-21T11:51:32;46.95;41.03;60.15;;
74234;Laerm;62591;55.764;37.718;2023-02-21T11:54:02;47.29;41.36;60.89;;
74234;Laerm;62591;55.764;37.718;2023-02-21T11:56:39;49.01;40.60;65.78;;
74234;Laerm;62591;55.764;37.718;2023-02-21T11:59:18;46.86;40.54;62.67;;
74234;Laerm;62591;55.764;37.718;2023-02-21T12:02:01;46.49;39.88;68.51;;
74234;Laerm;62591;55.764;37.718;2023-02-21T12:07:40;46.89;38.68;64.52;;
74234;Laerm;62591;55.764;37.718;2023-02-21T12:10:26;48.78;40.25;70.51;;
74234;Laerm;62591;55.764;37.718;2023-02-21T12:13:05;48.84;41.10;67.83;;
74234;Laerm;62591;55.764;37.718;2023-02-21T12:15:46;48.06;39.83;72.43;;
74234;Laerm;62591;55.764;37.718;2023-02-21T12:18:42;48.59;40.98;65.19;;
74234;Laerm;62591;55.764;37.718;2023-02-21T12:24:25;50.91;39.27;70.34;;
74234;Laerm;62591;55.764;37.718;2023-02-21T12:27:01;56.67;40.84;82.59;;
74234;Laerm;62591;55.764;37.718;2023-02-21T12:29:42;54.26;40.72;78.52;;
74234;Laerm;62591;55.764;37.718;2023-02-21T12:32:34;52.49;41.59;70.42;;
74234;Laerm;62591;55.764;37.718;2023-02-21T12:35:30;52.13;42.30;71.14;;
74234;Laerm;62591;55.764;37.718;2023-02-21T12:38:06;57.14;42.79;82.80;;
74234;Laerm;62591;55.764;37.718;2023-02-21T12:40:45;60.10;40.67;85.78;;
74234;Laerm;62591;55.764;37.718;2023-02-21T12:43:26;62.23;41.38;88.09;;
74234;Laerm;62591;55.764;37.718;2023-02-21T12:46:05;56.35;40.09;87.67;;
74234;Laerm;62591;55.764;37.718;2023-02-21T12:48:40;47.88;40.45;62.71;;
74234;Laerm;62591;55.764;37.718;2023-02-21T12:51:15;49.76;41.71;73.53;;
74234;Laerm;62591;55.764;37.718;2023-02-21T12:53:49;47.93;40.01;62.99;;
74234;Laerm;62591;55.764;37.718;2023-02-21T12:56:23;50.88;39.75;69.93;;
74234;Laerm;62591;55.764;37.718;2023-02-21T12:58:57;46.32;39.83;59.25;;
74234;Laerm;62591;55.764;37.718;2023-02-21T13:01:32;47.46;39.31;63.76;;
74234;Laerm;62591;55.764;37.718;2023-02-21T13:04:14;47.70;40.08;65.54;;
74234;Laerm;62591;55.764;37.718;2023-02-21T13:06:48;48.48;40.89;65.50;;
74234;Laerm;62591;55.764;37.718;2023-02-21T13:09:26;47.78;42.16;60.39;;
74234;Laerm;62591;55.764;37.718;2023-02-21T13:12:05;46.42;40.06;59.71;;
74234;Laerm;62591;55.764;37.718;2023-02-21T13:14:40;49.70;41.78;60.64;;
74234;Laerm;62591;55.764;37.718;2023-02-21T13:17:10;47.73;40.27;65.95;;
74234;Laerm;62591;55.764;37.718;2023-02-21T13:19:45;49.01;39.90;63.54;;
74234;Laerm;62591;55.764;37.718;2023-02-21T13:25:57;47.33;39.43;62.94;;
74234;Laerm;62591;55.764;37.718;2023-02-21T13:28:32;45.65;39.84;58.21;;
74234;Laerm;62591;55.764;37.718;2023-02-21T13:31:03;45.52;39.29;59.48;;
74234;Laerm;62591;55.764;37.718;2023-02-21T13:33:37;46.15;40.94;61.73;;
74234;Laerm;62591;55.764;37.718;2023-02-21T13:36:23;46.85;41.14;61.14;;
74234;Laerm;62591;55.764;37.718;2023-02-21T13:38:58;45.56;39.87;54.58;;
74234;Laerm;62591;55.764;37.718;2023-02-21T13:41:29;45.86;40.69;61.19;;
74234;Laerm;62591;55.764;37.718;2023-02-21T13:44:05;46.89;39.68;61.96;;
74234;Laerm;62591;55.764;37.718;2023-02-21T13:49:52;49.44;42.78;60.18;;
74234;Laerm;62591;55.764;37.718;2023-02-21T13:52:51;48.89;41.42;58.43;;
74234;Laerm;62591;55.764;37.718;2023-02-21T13:55:25;45.36;40.50;58.15;;
74234;Laerm;62591;55.764;37.718;2023-02-21T13:58:28;47.87;42.24;66.74;;
74234;Laerm;62591;55.764;37.718;2023-02-21T14:01:16;66.44;42.93;80.37;;
74234;Laerm;62591;55.764;37.718;2023-02-21T14:03:45;66.55;43.03;80.06;;
74234;Laerm;62591;55.764;37.718;2023-02-21T14:06:31;45.72;40.88;62.42;;
74234;Laerm;62591;55.764;37.718;2023-02-21T14:09:12;46.98;41.44;57.26;;
74234;Laerm;62591;55.764;37.718;2023-02-21T14:11:46;48.45;42.85;63.65;;
74234;Laerm;62591;55.764;37.718;2023-02-21T14:14:23;45.83;40.81;57.03;;
74234;Laerm;62591;55.764;37.718;2023-02-21T14:17:01;46.19;40.23;59.77;;
74234;Laerm;62591;55.764;37.718;2023-02-21T14:19:35;45.11;39.60;56.14;;
74234;Laerm;62591;55.764;37.718;2023-02-21T14:22:11;45.93;40.91;51.49;;
74234;Laerm;62591;55.764;37.718;2023-02-21T14:24:42;46.82;40.22;56.58;;
74234;Laerm;62591;55.764;37.718;2023-02-21T14:27:34;48.05;41.83;61.35;;
74234;Laerm;62591;55.764;37.718;2023-02-21T14:30:24;65.65;42.77;82.42;;
74234;Laerm;62591;55.764;37.718;2023-02-21T14:32:59;53.32;42.34;66.01;;
74234;Laerm;62591;55.764;37.718;2023-02-21T14:35:33;49.07;41.61;58.85;;